sensor_id;sensor_type;location;lat;lon;timestamp;temperature;humidity
69770;SHT30;57282;52.514;13.458;2023-03-22T00:02:00;20.87;55.34
69770;SHT30;57282;52.514;13.458;2023-03-22T00:04:27;19.60;55.94
69770;SHT30;57282;52.514;13.458;2023-03-22T00:06:54;18.84;57.50
69770;SHT30;57282;52.514;13.458;2023-03-22T00:09:21;18.76;58.42
69770;SHT30;57282;52.514;13.458;2023-03-22T00:11:49;19.31;57.73
69770;SHT30;57282;52.514;13.458;2023-03-22T00:14:16;19.70;57.44
69770;SHT30;57282;52.514;13.458;2023-03-22T00:16:43;19.98;56.83
69770;SHT30;57282;52.514;13.458;2023-03-22T00:19:13;20.16;56.38
69770;SHT30;57282;52.514;13.458;2023-03-22T00:21:40;20.23;56.15
69770;SHT30;57282;52.514;13.458;2023-03-22T00:24:07;20.37;55.92
69770;SHT30;57282;52.514;13.458;2023-03-22T00:26:34;20.47;55.76
69770;SHT30;57282;52.514;13.458;2023-03-22T00:29:02;20.54;55.55
69770;SHT30;57282;52.514;13.458;2023-03-22T00:31:29;20.64;55.16
69770;SHT30;57282;52.514;13.458;2023-03-22T00:33:56;20.64;55.44
69770;SHT30;57282;52.514;13.458;2023-03-22T00:36:23;20.67;55.39
69770;SHT30;57282;52.514;13.458;2023-03-22T00:38:50;20.66;55.43
69770;SHT30;57282;52.514;13.458;2023-03-22T00:41:18;20.67;55.49
69770;SHT30;57282;52.514;13.458;2023-03-22T00:43:46;20.69;55.45
69770;SHT30;57282;52.514;13.458;2023-03-22T00:46:16;20.69;55.48
69770;SHT30;57282;52.514;13.458;2023-03-22T00:48:44;20.67;55.47
69770;SHT30;57282;52.514;13.458;2023-03-22T00:51:11;20.69;55.50
69770;SHT30;57282;52.514;13.458;2023-03-22T00:53:39;20.71;55.51
69770;SHT30;57282;52.514;13.458;2023-03-22T00:56:07;20.69;55.57
69770;SHT30;57282;52.514;13.458;2023-03-22T00:58:34;20.73;55.53
69770;SHT30;57282;52.514;13.458;2023-03-22T01:01:01;20.70;55.53
69770;SHT30;57282;52.514;13.458;2023-03-22T01:03:29;20.74;55.56
69770;SHT30;57282;52.514;13.458;2023-03-22T01:05:57;20.70;55.62
69770;SHT30;57282;52.514;13.458;2023-03-22T01:08:24;20.73;55.69
69770;SHT30;57282;52.514;13.458;2023-03-22T01:10:58;20.71;55.68
69770;SHT30;57282;52.514;13.458;2023-03-22T01:13:25;20.71;55.74
69770;SHT30;57282;52.514;13.458;2023-03-22T01:15:53;20.71;55.74
69770;SHT30;57282;52.514;13.458;2023-03-22T01:18:20;20.70;55.86
69770;SHT30;57282;52.514;13.458;2023-03-22T01:20:48;20.73;55.87
69770;SHT30;57282;52.514;13.458;2023-03-22T01:23:16;20.71;55.87
69770;SHT30;57282;52.514;13.458;2023-03-22T01:25:49;20.74;55.91
69770;SHT30;57282;52.514;13.458;2023-03-22T01:28:16;20.77;55.92
69770;SHT30;57282;52.514;13.458;2023-03-22T01:30:42;20.74;55.97
69770;SHT30;57282;52.514;13.458;2023-03-22T01:33:10;20.74;56.01
69770;SHT30;57282;52.514;13.458;2023-03-22T01:35:36;20.74;56.07
69770;SHT30;57282;52.514;13.458;2023-03-22T01:38:06;20.73;56.12
69770;SHT30;57282;52.514;13.458;2023-03-22T01:40:33;20.74;56.11
69770;SHT30;57282;52.514;13.458;2023-03-22T01:43:00;20.74;56.13
69770;SHT30;57282;52.514;13.458;2023-03-22T01:45:34;20.73;56.13
69770;SHT30;57282;52.514;13.458;2023-03-22T01:48:05;20.76;56.16
69770;SHT30;57282;52.514;13.458;2023-03-22T01:50:34;20.74;56.17
69770;SHT30;57282;52.514;13.458;2023-03-22T01:53:03;20.73;56.26
69770;SHT30;57282;52.514;13.458;2023-03-22T01:55:33;20.74;56.29
69770;SHT30;57282;52.514;13.458;2023-03-22T01:58:01;20.76;56.34
69770;SHT30;57282;52.514;13.458;2023-03-22T02:00:28;20.74;56.34
69770;SHT30;57282;52.514;13.458;2023-03-22T02:02:56;20.76;56.38
69770;SHT30;57282;52.514;13.458;2023-03-22T02:05:24;20.74;56.44
69770;SHT30;57282;52.514;13.458;2023-03-22T02:07:51;20.76;56.46
69770;SHT30;57282;52.514;13.458;2023-03-22T02:10:21;20.76;56.59
69770;SHT30;57282;52.514;13.458;2023-03-22T02:13:02;20.74;56.57
69770;SHT30;57282;52.514;13.458;2023-03-22T02:15:34;20.76;56.64
69770;SHT30;57282;52.514;13.458;2023-03-22T02:18:17;20.74;56.62
69770;SHT30;57282;52.514;13.458;2023-03-22T02:21:04;20.77;56.65
69770;SHT30;57282;52.514;13.458;2023-03-22T02:24:08;20.73;56.70
69770;SHT30;57282;52.514;13.458;2023-03-22T02:29:41;20.77;56.82
69770;SHT30;57282;52.514;13.458;2023-03-22T02:32:28;20.79;56.79
69770;SHT30;57282;52.514;13.458;2023-03-22T02:35:24;20.79;56.82
69770;SHT30;57282;52.514;13.458;2023-03-22T02:40:57;20.77;56.91
69770;SHT30;57282;52.514;13.458;2023-03-22T02:43:34;20.76;56.96
69770;SHT30;57282;52.514;13.458;2023-03-22T02:46:07;20.79;56.94
69770;SHT30;57282;52.514;13.458;2023-03-22T02:48:40;20.76;56.96
69770;SHT30;57282;52.514;13.458;2023-03-22T02:51:11;20.77;56.99
69770;SHT30;57282;52.514;13.458;2023-03-22T02:53:43;20.74;57.02
69770;SHT30;57282;52.514;13.458;2023-03-22T02:56:16;20.76;57.08
69770;SHT30;57282;52.514;13.458;2023-03-22T02:58:47;20.76;57.10
69770;SHT30;57282;52.514;13.458;2023-03-22T03:01:22;20.74;57.10
69770;SHT30;57282;52.514;13.458;2023-03-22T03:03:53;20.74;57.13
69770;SHT30;57282;52.514;13.458;2023-03-22T03:06:23;20.71;57.16
69770;SHT30;57282;52.514;13.458;2023-03-22T03:08:52;20.73;57.19
69770;SHT30;57282;52.514;13.458;2023-03-22T03:11:24;20.73;57.24
69770;SHT30;57282;52.514;13.458;2023-03-22T03:13:50;20.74;57.24
69770;SHT30;57282;52.514;13.458;2023-03-22T03:16:19;20.76;57.27
69770;SHT30;57282;52.514;13.458;2023-03-22T03:18:50;20.73;57.23
69770;SHT30;57282;52.514;13.458;2023-03-22T03:21:28;20.73;57.25
69770;SHT30;57282;52.514;13.458;2023-03-22T03:24:06;20.73;57.29
69770;SHT30;57282;52.514;13.458;2023-03-22T03:26:42;20.74;57.26
69770;SHT30;57282;52.514;13.458;2023-03-22T03:29:16;20.74;57.39
69770;SHT30;57282;52.514;13.458;2023-03-22T03:31:50;20.73;57.39
69770;SHT30;57282;52.514;13.458;2023-03-22T03:34:21;20.73;57.37
69770;SHT30;57282;52.514;13.458;2023-03-22T03:36:53;20.74;57.42
69770;SHT30;57282;52.514;13.458;2023-03-22T03:39:23;20.74;57.42
69770;SHT30;57282;52.514;13.458;2023-03-22T03:41:54;20.73;57.47
69770;SHT30;57282;52.514;13.458;2023-03-22T03:44:21;20.71;57.53
69770;SHT30;57282;52.514;13.458;2023-03-22T03:46:49;20.70;57.53
69770;SHT30;57282;52.514;13.458;2023-03-22T03:49:17;20.71;57.56
69770;SHT30;57282;52.514;13.458;2023-03-22T03:51:46;20.76;57.53
69770;SHT30;57282;52.514;13.458;2023-03-22T03:54:13;20.73;57.57
69770;SHT30;57282;52.514;13.458;2023-03-22T03:56:40;20.71;57.56
69770;SHT30;57282;52.514;13.458;2023-03-22T03:59:08;20.71;57.58
69770;SHT30;57282;52.514;13.458;2023-03-22T04:01:35;20.70;57.62
69770;SHT30;57282;52.514;13.458;2023-03-22T04:04:02;20.73;57.67
69770;SHT30;57282;52.514;13.458;2023-03-22T04:06:28;20.73;57.64
69770;SHT30;57282;52.514;13.458;2023-03-22T04:08:59;20.73;57.69
69770;SHT30;57282;52.514;13.458;2023-03-22T04:11:26;20.71;57.72
69770;SHT30;57282;52.514;13.458;2023-03-22T04:13:52;20.70;57.73
69770;SHT30;57282;52.514;13.458;2023-03-22T04:16:21;20.73;57.73
69770;SHT30;57282;52.514;13.458;2023-03-22T04:18:49;20.73;57.70
69770;SHT30;57282;52.514;13.458;2023-03-22T04:21:16;20.73;57.71
69770;SHT30;57282;52.514;13.458;2023-03-22T04:23:44;20.71;57.72
69770;SHT30;57282;52.514;13.458;2023-03-22T04:26:11;20.73;57.80
69770;SHT30;57282;52.514;13.458;2023-03-22T04:28:38;20.73;57.76
69770;SHT30;57282;52.514;13.458;2023-03-22T04:31:06;20.73;57.72
69770;SHT30;57282;52.514;13.458;2023-03-22T04:33:34;20.71;57.77
69770;SHT30;57282;52.514;13.458;2023-03-22T04:36:04;20.70;57.74
69770;SHT30;57282;52.514;13.458;2023-03-22T04:38:35;20.71;57.80
69770;SHT30;57282;52.514;13.458;2023-03-22T04:41:04;20.71;57.79
69770;SHT30;57282;52.514;13.458;2023-03-22T04:43:31;20.73;57.78
69770;SHT30;57282;52.514;13.458;2023-03-22T04:45:59;20.71;57.81
69770;SHT30;57282;52.514;13.458;2023-03-22T04:48:27;20.73;57.81
69770;SHT30;57282;52.514;13.458;2023-03-22T04:50:55;20.70;57.90
69770;SHT30;57282;52.514;13.458;2023-03-22T04:53:22;20.70;57.89
69770;SHT30;57282;52.514;13.458;2023-03-22T04:55:52;20.71;57.89
69770;SHT30;57282;52.514;13.458;2023-03-22T04:58:21;20.71;57.88
69770;SHT30;57282;52.514;13.458;2023-03-22T05:00:49;20.73;57.89
69770;SHT30;57282;52.514;13.458;2023-03-22T05:03:17;20.73;57.93
69770;SHT30;57282;52.514;13.458;2023-03-22T05:05:51;20.70;57.89
69770;SHT30;57282;52.514;13.458;2023-03-22T05:08:22;20.73;57.91
69770;SHT30;57282;52.514;13.458;2023-03-22T05:10:50;20.70;57.92
69770;SHT30;57282;52.514;13.458;2023-03-22T05:13:18;20.71;57.92
69770;SHT30;57282;52.514;13.458;2023-03-22T05:15:45;20.69;57.92
69770;SHT30;57282;52.514;13.458;2023-03-22T05:18:13;20.69;57.90
69770;SHT30;57282;52.514;13.458;2023-03-22T05:20:40;20.70;57.87
69770;SHT30;57282;52.514;13.458;2023-03-22T05:23:07;20.71;57.87
69770;SHT30;57282;52.514;13.458;2023-03-22T05:25:36;20.71;57.94
69770;SHT30;57282;52.514;13.458;2023-03-22T05:28:04;20.71;57.91
69770;SHT30;57282;52.514;13.458;2023-03-22T05:30:31;20.69;57.97
69770;SHT30;57282;52.514;13.458;2023-03-22T05:32:59;20.69;57.96
69770;SHT30;57282;52.514;13.458;2023-03-22T05:35:27;20.69;57.95
69770;SHT30;57282;52.514;13.458;2023-03-22T05:37:54;20.70;57.93
69770;SHT30;57282;52.514;13.458;2023-03-22T05:40:21;20.69;57.95
69770;SHT30;57282;52.514;13.458;2023-03-22T05:42:49;20.69;57.99
69770;SHT30;57282;52.514;13.458;2023-03-22T05:45:16;20.70;57.96
69770;SHT30;57282;52.514;13.458;2023-03-22T05:47:43;20.70;57.98
69770;SHT30;57282;52.514;13.458;2023-03-22T05:50:12;20.67;58.01
69770;SHT30;57282;52.514;13.458;2023-03-22T05:52:39;20.69;57.94
69770;SHT30;57282;52.514;13.458;2023-03-22T05:55:07;20.70;57.96
69770;SHT30;57282;52.514;13.458;2023-03-22T05:57:34;20.70;57.91
69770;SHT30;57282;52.514;13.458;2023-03-22T06:00:03;20.67;57.97
69770;SHT30;57282;52.514;13.458;2023-03-22T06:02:34;20.70;57.92
69770;SHT30;57282;52.514;13.458;2023-03-22T06:05:01;20.70;57.93
69770;SHT30;57282;52.514;13.458;2023-03-22T06:07:28;20.69;57.96
69770;SHT30;57282;52.514;13.458;2023-03-22T06:09:55;20.70;57.97
69770;SHT30;57282;52.514;13.458;2023-03-22T06:12:22;20.70;57.92
69770;SHT30;57282;52.514;13.458;2023-03-22T06:14:50;20.69;57.99
69770;SHT30;57282;52.514;13.458;2023-03-22T06:17:18;20.71;57.95
69770;SHT30;57282;52.514;13.458;2023-03-22T06:19:45;20.67;57.92
69770;SHT30;57282;52.514;13.458;2023-03-22T06:22:12;20.67;57.93
69770;SHT30;57282;52.514;13.458;2023-03-22T06:24:39;20.66;57.97
69770;SHT30;57282;52.514;13.458;2023-03-22T06:27:07;20.69;57.93
69770;SHT30;57282;52.514;13.458;2023-03-22T06:29:34;20.69;58.01
69770;SHT30;57282;52.514;13.458;2023-03-22T06:32:01;20.67;58.04
69770;SHT30;57282;52.514;13.458;2023-03-22T06:34:30;20.69;58.06
69770;SHT30;57282;52.514;13.458;2023-03-22T06:36:57;20.69;58.16
69770;SHT30;57282;52.514;13.458;2023-03-22T06:39:23;20.69;58.14
69770;SHT30;57282;52.514;13.458;2023-03-22T06:41:50;20.69;58.16
69770;SHT30;57282;52.514;13.458;2023-03-22T06:44:17;20.66;58.20
69770;SHT30;57282;52.514;13.458;2023-03-22T06:46:44;20.67;58.18
69770;SHT30;57282;52.514;13.458;2023-03-22T06:49:11;20.69;58.15
69770;SHT30;57282;52.514;13.458;2023-03-22T06:51:39;20.69;58.19
69770;SHT30;57282;52.514;13.458;2023-03-22T06:54:05;20.69;58.15
69770;SHT30;57282;52.514;13.458;2023-03-22T06:56:32;20.69;58.18
69770;SHT30;57282;52.514;13.458;2023-03-22T06:58:59;20.70;58.16
69770;SHT30;57282;52.514;13.458;2023-03-22T07:01:26;20.25;54.81
69770;SHT30;57282;52.514;13.458;2023-03-22T07:03:52;19.12;55.49
69770;SHT30;57282;52.514;13.458;2023-03-22T07:06:19;18.33;56.39
69770;SHT30;57282;52.514;13.458;2023-03-22T07:08:47;18.09;57.58
69770;SHT30;57282;52.514;13.458;2023-03-22T07:11:14;18.64;57.51
69770;SHT30;57282;52.514;13.458;2023-03-22T07:13:41;19.13;57.94
69770;SHT30;57282;52.514;13.458;2023-03-22T07:16:09;19.46;56.32
69770;SHT30;57282;52.514;13.458;2023-03-22T07:18:36;19.58;55.95
69770;SHT30;57282;52.514;13.458;2023-03-22T07:21:04;19.77;57.15
69770;SHT30;57282;52.514;13.458;2023-03-22T07:23:31;19.88;56.99
69770;SHT30;57282;52.514;13.458;2023-03-22T07:25:59;20.02;56.65
69770;SHT30;57282;52.514;13.458;2023-03-22T07:28:26;20.11;56.74
69770;SHT30;57282;52.514;13.458;2023-03-22T07:30:59;20.16;56.74
69770;SHT30;57282;52.514;13.458;2023-03-22T07:33:26;20.18;56.74
69770;SHT30;57282;52.514;13.458;2023-03-22T07:35:52;20.19;56.78
69770;SHT30;57282;52.514;13.458;2023-03-22T07:38:19;20.22;56.81
69770;SHT30;57282;52.514;13.458;2023-03-22T07:40:46;20.28;56.87
69770;SHT30;57282;52.514;13.458;2023-03-22T07:43:16;20.29;56.80
69770;SHT30;57282;52.514;13.458;2023-03-22T07:45:43;20.28;56.91
69770;SHT30;57282;52.514;13.458;2023-03-22T07:48:10;20.29;56.94
69770;SHT30;57282;52.514;13.458;2023-03-22T07:50:38;20.32;56.92
69770;SHT30;57282;52.514;13.458;2023-03-22T07:53:06;20.29;56.93
69770;SHT30;57282;52.514;13.458;2023-03-22T07:55:32;20.30;56.94
69770;SHT30;57282;52.514;13.458;2023-03-22T07:58:00;20.33;56.90
69770;SHT30;57282;52.514;13.458;2023-03-22T08:00:28;20.34;56.88
69770;SHT30;57282;52.514;13.458;2023-03-22T08:02:55;20.33;56.87
69770;SHT30;57282;52.514;13.458;2023-03-22T08:05:22;20.30;56.88
69770;SHT30;57282;52.514;13.458;2023-03-22T08:07:48;20.34;56.86
69770;SHT30;57282;52.514;13.458;2023-03-22T08:10:16;20.39;56.82
69770;SHT30;57282;52.514;13.458;2023-03-22T08:12:43;20.40;56.83
69770;SHT30;57282;52.514;13.458;2023-03-22T08:15:10;20.36;56.45
69770;SHT30;57282;52.514;13.458;2023-03-22T08:17:39;19.50;55.61
69770;SHT30;57282;52.514;13.458;2023-03-22T08:20:07;18.98;55.75
69770;SHT30;57282;52.514;13.458;2023-03-22T08:22:34;18.58;55.96
69770;SHT30;57282;52.514;13.458;2023-03-22T08:25:01;18.28;56.30
69770;SHT30;57282;52.514;13.458;2023-03-22T08:27:30;18.06;56.55
69770;SHT30;57282;52.514;13.458;2023-03-22T08:29:57;17.92;56.73
69770;SHT30;57282;52.514;13.458;2023-03-22T08:32:25;17.85;56.75
69770;SHT30;57282;52.514;13.458;2023-03-22T08:34:53;17.76;56.71
69770;SHT30;57282;52.514;13.458;2023-03-22T08:37:20;17.70;56.62
69770;SHT30;57282;52.514;13.458;2023-03-22T08:39:47;17.66;56.79
69770;SHT30;57282;52.514;13.458;2023-03-22T08:42:14;18.21;56.85
69770;SHT30;57282;52.514;13.458;2023-03-22T08:44:40;18.75;56.52
69770;SHT30;57282;52.514;13.458;2023-03-22T08:47:07;19.07;56.59
69770;SHT30;57282;52.514;13.458;2023-03-22T08:49:39;19.27;56.31
69770;SHT30;57282;52.514;13.458;2023-03-22T08:52:09;19.43;56.15
69770;SHT30;57282;52.514;13.458;2023-03-22T08:54:36;19.50;56.21
69770;SHT30;57282;52.514;13.458;2023-03-22T08:57:03;19.60;56.18
69770;SHT30;57282;52.514;13.458;2023-03-22T08:59:33;19.68;55.92
69770;SHT30;57282;52.514;13.458;2023-03-22T09:02:00;19.77;56.34
69770;SHT30;57282;52.514;13.458;2023-03-22T09:04:27;19.82;56.27
69770;SHT30;57282;52.514;13.458;2023-03-22T09:06:55;19.82;56.43
69770;SHT30;57282;52.514;13.458;2023-03-22T09:09:23;19.86;56.45
69770;SHT30;57282;52.514;13.458;2023-03-22T09:11:50;19.88;56.52
69770;SHT30;57282;52.514;13.458;2023-03-22T09:14:17;19.94;56.63
69770;SHT30;57282;52.514;13.458;2023-03-22T09:16:43;19.96;56.64
69770;SHT30;57282;52.514;13.458;2023-03-22T09:19:11;20.01;56.62
69770;SHT30;57282;52.514;13.458;2023-03-22T09:21:38;20.01;56.69
69770;SHT30;57282;52.514;13.458;2023-03-22T09:24:05;20.06;56.66
69770;SHT30;57282;52.514;13.458;2023-03-22T09:26:34;20.11;56.67
69770;SHT30;57282;52.514;13.458;2023-03-22T09:29:01;20.12;56.71
69770;SHT30;57282;52.514;13.458;2023-03-22T09:31:28;20.18;56.70
69770;SHT30;57282;52.514;13.458;2023-03-22T09:33:55;20.21;56.73
69770;SHT30;57282;52.514;13.458;2023-03-22T09:36:22;20.22;56.78
69770;SHT30;57282;52.514;13.458;2023-03-22T09:38:48;20.26;56.74
69770;SHT30;57282;52.514;13.458;2023-03-22T09:41:19;20.25;56.82
69770;SHT30;57282;52.514;13.458;2023-03-22T09:43:52;20.32;56.77
69770;SHT30;57282;52.514;13.458;2023-03-22T09:46:24;20.32;56.76
69770;SHT30;57282;52.514;13.458;2023-03-22T09:48:55;20.34;56.76
69770;SHT30;57282;52.514;13.458;2023-03-22T09:51:29;20.36;56.80
69770;SHT30;57282;52.514;13.458;2023-03-22T09:53:59;20.37;56.85
69770;SHT30;57282;52.514;13.458;2023-03-22T09:56:27;20.40;56.85
69770;SHT30;57282;52.514;13.458;2023-03-22T09:59:01;20.42;56.80
69770;SHT30;57282;52.514;13.458;2023-03-22T10:01:38;20.46;56.78
69770;SHT30;57282;52.514;13.458;2023-03-22T10:04:38;20.46;56.77
69770;SHT30;57282;52.514;13.458;2023-03-22T10:07:13;20.49;56.84
69770;SHT30;57282;52.514;13.458;2023-03-22T10:09:45;20.52;56.80
69770;SHT30;57282;52.514;13.458;2023-03-22T10:12:23;20.53;56.74
69770;SHT30;57282;52.514;13.458;2023-03-22T10:15:02;20.56;56.72
69770;SHT30;57282;52.514;13.458;2023-03-22T10:17:30;20.56;56.70
69770;SHT30;57282;52.514;13.458;2023-03-22T10:20:01;20.57;56.72
69770;SHT30;57282;52.514;13.458;2023-03-22T10:22:34;20.60;56.69
69770;SHT30;57282;52.514;13.458;2023-03-22T10:25:11;20.59;56.66
69770;SHT30;57282;52.514;13.458;2023-03-22T10:27:41;20.61;56.63
69770;SHT30;57282;52.514;13.458;2023-03-22T10:30:19;20.66;56.61
69770;SHT30;57282;52.514;13.458;2023-03-22T10:32:51;20.63;56.61
69770;SHT30;57282;52.514;13.458;2023-03-22T10:35:21;20.66;56.66
69770;SHT30;57282;52.514;13.458;2023-03-22T10:37:50;20.67;56.66
69770;SHT30;57282;52.514;13.458;2023-03-22T10:40:20;20.66;56.64
69770;SHT30;57282;52.514;13.458;2023-03-22T10:42:52;20.70;56.57
69770;SHT30;57282;52.514;13.458;2023-03-22T10:45:23;20.70;56.54
69770;SHT30;57282;52.514;13.458;2023-03-22T10:47:55;20.73;56.52
69770;SHT30;57282;52.514;13.458;2023-03-22T10:50:26;20.74;56.79
69770;SHT30;57282;52.514;13.458;2023-03-22T10:52:58;20.79;56.41
69770;SHT30;57282;52.514;13.458;2023-03-22T10:55:27;20.79;56.46
69770;SHT30;57282;52.514;13.458;2023-03-22T10:57:59;20.79;56.41
69770;SHT30;57282;52.514;13.458;2023-03-22T11:00:32;20.79;56.43
69770;SHT30;57282;52.514;13.458;2023-03-22T11:03:00;20.80;56.40
69770;SHT30;57282;52.514;13.458;2023-03-22T11:05:28;20.81;56.40
69770;SHT30;57282;52.514;13.458;2023-03-22T11:07:55;20.81;56.44
69770;SHT30;57282;52.514;13.458;2023-03-22T11:10:25;20.81;56.43
69770;SHT30;57282;52.514;13.458;2023-03-22T11:12:54;20.84;56.34
69770;SHT30;57282;52.514;13.458;2023-03-22T11:15:25;20.84;56.35
69770;SHT30;57282;52.514;13.458;2023-03-22T11:17:57;20.85;56.39
69770;SHT30;57282;52.514;13.458;2023-03-22T11:20:26;20.88;56.37
69770;SHT30;57282;52.514;13.458;2023-03-22T11:22:53;20.87;56.35
69770;SHT30;57282;52.514;13.458;2023-03-22T11:25:26;20.88;56.37
69770;SHT30;57282;52.514;13.458;2023-03-22T11:27:55;20.90;56.29
69770;SHT30;57282;52.514;13.458;2023-03-22T11:30:25;20.91;56.33
69770;SHT30;57282;52.514;13.458;2023-03-22T11:33:15;20.90;56.32
69770;SHT30;57282;52.514;13.458;2023-03-22T11:35:44;20.90;56.28
69770;SHT30;57282;52.514;13.458;2023-03-22T11:38:23;21.00;56.26
69770;SHT30;57282;52.514;13.458;2023-03-22T11:40:53;20.94;56.19
69770;SHT30;57282;52.514;13.458;2023-03-22T11:43:22;20.98;56.23
69770;SHT30;57282;52.514;13.458;2023-03-22T11:45:53;20.98;56.22
69770;SHT30;57282;52.514;13.458;2023-03-22T11:48:24;20.97;56.17
69770;SHT30;57282;52.514;13.458;2023-03-22T11:50:54;20.97;56.19
69770;SHT30;57282;52.514;13.458;2023-03-22T11:53:23;20.98;56.12
69770;SHT30;57282;52.514;13.458;2023-03-22T11:55:53;20.98;56.14
69770;SHT30;57282;52.514;13.458;2023-03-22T11:58:25;20.97;56.13
69770;SHT30;57282;52.514;13.458;2023-03-22T12:00:53;21.01;56.17
69770;SHT30;57282;52.514;13.458;2023-03-22T12:03:25;21.04;55.97
69770;SHT30;57282;52.514;13.458;2023-03-22T12:05:53;21.02;56.03
69770;SHT30;57282;52.514;13.458;2023-03-22T12:08:27;21.02;55.99
69770;SHT30;57282;52.514;13.458;2023-03-22T12:11:02;21.02;55.98
69770;SHT30;57282;52.514;13.458;2023-03-22T12:13:37;21.05;55.95
69770;SHT30;57282;52.514;13.458;2023-03-22T12:16:08;21.12;55.91
69770;SHT30;57282;52.514;13.458;2023-03-22T12:18:43;21.17;55.80
69770;SHT30;57282;52.514;13.458;2023-03-22T12:21:11;21.14;55.80
69770;SHT30;57282;52.514;13.458;2023-03-22T12:23:38;21.09;55.79
69770;SHT30;57282;52.514;13.458;2023-03-22T12:26:07;21.09;55.82
69770;SHT30;57282;52.514;13.458;2023-03-22T12:28:40;21.05;55.82
69770;SHT30;57282;52.514;13.458;2023-03-22T12:31:12;21.08;55.81
69770;SHT30;57282;52.514;13.458;2023-03-22T12:33:44;21.07;55.78
69770;SHT30;57282;52.514;13.458;2023-03-22T12:36:16;21.08;55.77
69770;SHT30;57282;52.514;13.458;2023-03-22T12:38:46;21.08;55.72
69770;SHT30;57282;52.514;13.458;2023-03-22T12:41:15;21.07;55.74
69770;SHT30;57282;52.514;13.458;2023-03-22T12:43:47;21.05;55.68
69770;SHT30;57282;52.514;13.458;2023-03-22T12:46:19;21.07;55.69
69770;SHT30;57282;52.514;13.458;2023-03-22T12:48:56;21.07;55.67
69770;SHT30;57282;52.514;13.458;2023-03-22T12:51:30;21.08;55.60
69770;SHT30;57282;52.514;13.458;2023-03-22T12:53:58;21.07;55.62
69770;SHT30;57282;52.514;13.458;2023-03-22T12:56:29;21.07;55.56
69770;SHT30;57282;52.514;13.458;2023-03-22T12:59:02;20.67;51.02
69770;SHT30;57282;52.514;13.458;2023-03-22T13:01:33;20.28;50.76
69770;SHT30;57282;52.514;13.458;2023-03-22T13:04:27;20.09;51.06
69770;SHT30;57282;52.514;13.458;2023-03-22T13:06:55;19.92;51.06
69770;SHT30;57282;52.514;13.458;2023-03-22T13:09:35;19.70;50.51
69770;SHT30;57282;52.514;13.458;2023-03-22T13:12:31;19.81;51.39
69770;SHT30;57282;52.514;13.458;2023-03-22T13:15:02;20.01;51.29
69770;SHT30;57282;52.514;13.458;2023-03-22T13:17:38;20.19;51.82
69770;SHT30;57282;52.514;13.458;2023-03-22T13:20:31;20.33;51.86
69770;SHT30;57282;52.514;13.458;2023-03-22T13:23:24;20.42;51.85
69770;SHT30;57282;52.514;13.458;2023-03-22T13:26:03;20.47;51.76
69770;SHT30;57282;52.514;13.458;2023-03-22T13:28:31;20.52;51.94
69770;SHT30;57282;52.514;13.458;2023-03-22T13:31:02;20.53;51.91
69770;SHT30;57282;52.514;13.458;2023-03-22T13:33:30;20.57;51.94
69770;SHT30;57282;52.514;13.458;2023-03-22T13:36:05;20.57;51.95
69770;SHT30;57282;52.514;13.458;2023-03-22T13:38:34;20.60;51.95
69770;SHT30;57282;52.514;13.458;2023-03-22T13:41:05;20.61;51.88
69770;SHT30;57282;52.514;13.458;2023-03-22T13:43:34;20.61;51.96
69770;SHT30;57282;52.514;13.458;2023-03-22T13:52:18;20.67;52.14
69770;SHT30;57282;52.514;13.458;2023-03-22T13:54:48;20.67;52.11
69770;SHT30;57282;52.514;13.458;2023-03-22T13:57:39;20.69;52.16
69770;SHT30;57282;52.514;13.458;2023-03-22T14:00:18;20.69;52.20
69770;SHT30;57282;52.514;13.458;2023-03-22T14:02:47;20.69;52.33
69770;SHT30;57282;52.514;13.458;2023-03-22T14:05:16;20.69;52.39
69770;SHT30;57282;52.514;13.458;2023-03-22T14:07:46;20.69;52.42
69770;SHT30;57282;52.514;13.458;2023-03-22T14:10:17;20.71;52.33
69770;SHT30;57282;52.514;13.458;2023-03-22T14:12:49;20.70;52.45
69770;SHT30;57282;52.514;13.458;2023-03-22T14:15:20;20.73;52.46
69770;SHT30;57282;52.514;13.458;2023-03-22T14:17:50;20.73;52.44
69770;SHT30;57282;52.514;13.458;2023-03-22T14:20:20;20.73;52.45
69770;SHT30;57282;52.514;13.458;2023-03-22T14:22:52;20.74;52.55
69770;SHT30;57282;52.514;13.458;2023-03-22T14:25:22;20.71;52.54
69770;SHT30;57282;52.514;13.458;2023-03-22T14:27:50;20.74;52.58
69770;SHT30;57282;52.514;13.458;2023-03-22T14:30:35;20.76;52.59
69770;SHT30;57282;52.514;13.458;2023-03-22T14:33:06;20.74;52.61
69770;SHT30;57282;52.514;13.458;2023-03-22T14:35:40;20.76;52.66
69770;SHT30;57282;52.514;13.458;2023-03-22T14:38:13;20.77;52.61
69770;SHT30;57282;52.514;13.458;2023-03-22T14:40:41;20.76;52.59
69770;SHT30;57282;52.514;13.458;2023-03-22T14:43:12;20.77;52.50
69770;SHT30;57282;52.514;13.458;2023-03-22T14:45:40;20.79;52.53
69770;SHT30;57282;52.514;13.458;2023-03-22T14:48:15;20.77;52.74
69770;SHT30;57282;52.514;13.458;2023-03-22T14:50:44;20.88;52.75
69770;SHT30;57282;52.514;13.458;2023-03-22T14:53:15;20.91;52.79
69770;SHT30;57282;52.514;13.458;2023-03-22T14:56:29;20.87;51.89
69770;SHT30;57282;52.514;13.458;2023-03-22T14:58:59;20.87;52.61
69770;SHT30;57282;52.514;13.458;2023-03-22T15:01:29;20.88;52.82
69770;SHT30;57282;52.514;13.458;2023-03-22T15:03:58;20.90;52.96
69770;SHT30;57282;52.514;13.458;2023-03-22T15:06:27;20.91;53.17
69770;SHT30;57282;52.514;13.458;2023-03-22T15:09:00;20.94;53.30
69770;SHT30;57282;52.514;13.458;2023-03-22T15:11:31;20.94;53.21
69770;SHT30;57282;52.514;13.458;2023-03-22T15:14:00;20.98;53.29
69770;SHT30;57282;52.514;13.458;2023-03-22T15:16:31;20.98;53.29
69770;SHT30;57282;52.514;13.458;2023-03-22T15:19:01;20.97;53.28
69770;SHT30;57282;52.514;13.458;2023-03-22T15:21:30;21.00;53.29
69770;SHT30;57282;52.514;13.458;2023-03-22T15:24:11;21.00;53.29
69770;SHT30;57282;52.514;13.458;2023-03-22T15:26:40;21.00;53.27
69770;SHT30;57282;52.514;13.458;2023-03-22T15:29:07;21.02;53.27
69770;SHT30;57282;52.514;13.458;2023-03-22T15:31:39;21.01;53.43
69770;SHT30;57282;52.514;13.458;2023-03-22T15:34:07;21.01;53.29
69770;SHT30;57282;52.514;13.458;2023-03-22T15:36:37;21.01;53.42
69770;SHT30;57282;52.514;13.458;2023-03-22T15:39:14;21.01;53.47
69770;SHT30;57282;52.514;13.458;2023-03-22T15:41:49;21.02;53.47
69770;SHT30;57282;52.514;13.458;2023-03-22T15:44:20;21.04;53.61
69770;SHT30;57282;52.514;13.458;2023-03-22T15:46:52;21.05;53.51